Time;durP1;ratioP1;P1;durP2;ratioP2;P2;SDS_P1;SDS_P2;PMS_P1;PMS_P2;Temp;Humidity;BMP_temperature;BMP_pressure;BME280_temperature;BME280_humidity;BME280_pressure;Samples;Min_cycle;Max_cycle;Signal;HPM_P1;HPM_P2
2023/09/08 00:00:42;;;;;;;0.30;0.30;;;;;;;;;;5074958;28;20117;-71
2023/09/08 00:03:08;;;;;;;0.60;0.60;;;;;;;;;;5074878;28;20043;-71
2023/09/08 00:05:34;;;;;;;0.10;0.10;;;;;;;;;;5074740;28;20059;-72
2023/09/08 00:08:00;;;;;;;0.28;0.28;;;;;;;;;;5074829;28;20056;-71
2023/09/08 00:10:26;;;;;;;0.20;0.20;;;;;;;;;;5074632;28;20020;-71
2023/09/08 00:12:51;;;;;;;0.20;0.20;;;;;;;;;;5074640;28;20047;-71
2023/09/08 00:15:17;;;;;;;0.28;0.28;;;;;;;;;;5074731;28;20060;-71
2023/09/08 00:17:42;;;;;;;0.85;0.85;;;;;;;;;;5074521;28;20064;-71
2023/09/08 00:20:08;;;;;;;0.60;0.60;;;;;;;;;;5074590;28;20024;-72
2023/09/08 00:22:35;;;;;;;0.47;0.47;;;;;;;;;;5074650;28;20031;-72
2023/09/08 00:25:01;;;;;;;0.20;0.20;;;;;;;;;;5074820;28;20120;-72
2023/09/08 00:27:27;;;;;;;2.17;2.08;;;;;;;;;;5074541;28;20115;-71
2023/09/08 00:29:52;;;;;;;0.40;0.40;;;;;;;;;;5074398;28;20498;-71
2023/09/08 00:32:18;;;;;;;0.20;0.20;;;;;;;;;;5074359;28;20111;-71
2023/09/08 00:34:44;;;;;;;0.20;0.20;;;;;;;;;;5074618;28;20048;-72
2023/09/08 00:37:09;;;;;;;0.65;0.65;;;;;;;;;;5056166;28;20115;-70
2023/09/08 00:39:35;;;;;;;0.30;0.30;;;;;;;;;;5074391;28;20027;-71
2023/09/08 00:42:01;;;;;;;0.20;0.20;;;;;;;;;;5056269;28;20036;-71
2023/09/08 00:44:27;;;;;;;0.20;0.20;;;;;;;;;;5056119;28;20380;-71
2023/09/08 00:46:53;;;;;;;0.20;0.20;;;;;;;;;;5074182;28;20043;-71
2023/09/08 00:49:18;;;;;;;0.55;0.55;;;;;;;;;;5074048;28;20029;-71
2023/09/08 00:51:44;;;;;;;0.20;0.20;;;;;;;;;;5074233;28;20537;-72
2023/09/08 00:54:10;;;;;;;0.20;0.20;;;;;;;;;;5056091;28;20557;-72
2023/09/08 00:56:37;;;;;;;0.30;0.30;;;;;;;;;;5074134;28;20032;-70
2023/09/08 00:59:03;;;;;;;0.20;0.20;;;;;;;;;;5074137;28;20075;-71
2023/09/08 01:01:29;;;;;;;0.20;0.20;;;;;;;;;;5077343;28;20044;-72
2023/09/08 01:03:54;;;;;;;0.22;0.22;;;;;;;;;;5074405;28;20028;-72
2023/09/08 01:06:21;;;;;;;0.20;0.20;;;;;;;;;;5056442;28;20506;-71
2023/09/08 01:08:48;;;;;;;0.20;0.20;;;;;;;;;;5056200;28;20016;-72
2023/09/08 01:11:13;;;;;;;0.20;0.20;;;;;;;;;;5073884;28;20488;-72
2023/09/08 01:13:39;;;;;;;0.20;0.20;;;;;;;;;;5073689;28;20074;-71
2023/09/08 01:16:04;;;;;;;0.28;0.25;;;;;;;;;;5073952;28;20040;-72
2023/09/08 01:18:30;;;;;;;0.30;0.30;;;;;;;;;;5073742;28;20379;-72
2023/09/08 01:21:14;;;;;;;0.10;0.10;;;;;;;;;;5073806;28;20044;-72
2023/09/08 01:23:59;;;;;;;0.20;0.20;;;;;;;;;;5055951;28;20033;-72
2023/09/08 01:26:30;;;;;;;0.32;0.32;;;;;;;;;;5073618;28;20052;-71
2023/09/08 01:28:57;;;;;;;0.20;0.20;;;;;;;;;;5073598;28;20103;-72
2023/09/08 01:31:22;;;;;;;0.10;0.10;;;;;;;;;;5072258;28;20062;-73
2023/09/08 01:33:48;;;;;;;0.20;0.20;;;;;;;;;;5073496;28;20108;-72
2023/09/08 01:36:14;;;;;;;0.20;0.20;;;;;;;;;;5073356;28;20092;-73
2023/09/08 01:38:40;;;;;;;1.85;1.75;;;;;;;;;;5073302;28;20028;-72
2023/09/08 01:41:05;;;;;;;0.20;0.20;;;;;;;;;;5073382;28;20059;-72
2023/09/08 01:43:31;;;;;;;0.30;0.30;;;;;;;;;;5055469;28;20033;-72
2023/09/08 01:45:56;;;;;;;0.85;0.85;;;;;;;;;;5073685;28;20113;-72
2023/09/08 01:48:23;;;;;;;0.20;0.20;;;;;;;;;;5072768;28;20039;-71
2023/09/08 01:50:49;;;;;;;0.20;0.20;;;;;;;;;;5073301;28;20032;-71
2023/09/08 01:53:15;;;;;;;0.20;0.20;;;;;;;;;;5073054;28;20029;-70
2023/09/08 01:55:40;;;;;;;0.20;0.20;;;;;;;;;;5073134;28;20028;-70
2023/09/08 01:58:06;;;;;;;0.10;0.10;;;;;;;;;;5055200;28;20433;-71
2023/09/08 02:00:32;;;;;;;0.47;0.47;;;;;;;;;;5055234;28;20082;-71
2023/09/08 02:02:58;;;;;;;0.20;0.20;;;;;;;;;;5072981;28;20063;-70
2023/09/08 02:05:25;;;;;;;0.20;0.20;;;;;;;;;;5054290;28;20119;-71
2023/09/08 02:07:51;;;;;;;0.15;0.15;;;;;;;;;;5054869;28;20032;-72
2023/09/08 02:10:17;;;;;;;0.20;0.20;;;;;;;;;;5072814;28;20388;-71
2023/09/08 02:12:42;;;;;;;0.20;0.20;;;;;;;;;;5072725;28;20046;-71
2023/09/08 02:15:08;;;;;;;0.43;0.43;;;;;;;;;;5072994;28;20036;-70
2023/09/08 02:17:34;;;;;;;0.20;0.20;;;;;;;;;;5072928;28;20031;-70
2023/09/08 02:19:59;;;;;;;0.20;0.20;;;;;;;;;;5054945;28;20032;-70
2023/09/08 02:22:25;;;;;;;0.10;0.10;;;;;;;;;;5055046;28;20033;-71
2023/09/08 02:24:51;;;;;;;0.65;0.60;;;;;;;;;;5072594;28;20040;-71
2023/09/08 02:27:18;;;;;;;0.20;0.20;;;;;;;;;;5054826;28;20032;-71
2023/09/08 02:29:45;;;;;;;0.20;0.20;;;;;;;;;;5054792;28;20040;-69
2023/09/08 02:32:11;;;;;;;0.20;0.20;;;;;;;;;;5052229;28;20074;-69
2023/09/08 02:34:37;;;;;;;0.10;0.10;;;;;;;;;;5072474;28;20044;-70
2023/09/08 02:37:04;;;;;;;0.20;0.20;;;;;;;;;;5072741;28;20020;-69
2023/09/08 02:39:30;;;;;;;0.20;0.20;;;;;;;;;;5054421;28;20029;-69
2023/09/08 02:41:56;;;;;;;0.35;0.35;;;;;;;;;;5068619;28;20032;-70
2023/09/08 02:44:25;;;;;;;0.20;0.20;;;;;;;;;;5064876;28;20532;-70
2023/09/08 02:46:51;;;;;;;0.10;0.10;;;;;;;;;;5071437;28;20029;-71
2023/09/08 02:49:17;;;;;;;0.20;0.20;;;;;;;;;;5072600;28;20085;-70
2023/09/08 02:51:43;;;;;;;0.20;0.20;;;;;;;;;;5072233;28;20043;-70
2023/09/08 02:54:08;;;;;;;0.17;0.17;;;;;;;;;;5072315;28;20383;-70
2023/09/08 02:56:34;;;;;;;0.20;0.20;;;;;;;;;;5072712;28;20043;-71
2023/09/08 02:58:59;;;;;;;1.08;1.08;;;;;;;;;;5072220;28;20044;-70
2023/09/08 03:01:25;;;;;;;0.20;0.20;;;;;;;;;;5073151;28;20040;-71
2023/09/08 03:03:51;;;;;;;0.20;0.20;;;;;;;;;;5050681;28;20060;-71
2023/09/08 03:06:20;;;;;;;0.20;0.20;;;;;;;;;;5053624;28;20066;-71
2023/09/08 03:08:46;;;;;;;0.10;0.10;;;;;;;;;;5053667;28;20399;-70
2023/09/08 03:11:12;;;;;;;0.20;0.20;;;;;;;;;;5053893;28;20027;-70
2023/09/08 03:13:39;;;;;;;0.10;0.10;;;;;;;;;;5053924;28;20032;-70
2023/09/08 03:16:05;;;;;;;0.20;0.20;;;;;;;;;;5053701;28;20046;-70
2023/09/08 03:18:32;;;;;;;0.20;0.20;;;;;;;;;;5071947;28;20859;-72
2023/09/08 03:20:58;;;;;;;0.20;0.20;;;;;;;;;;5070647;28;20028;-70
2023/09/08 03:23:23;;;;;;;0.20;0.20;;;;;;;;;;5071637;28;20039;-71
2023/09/08 03:25:49;;;;;;;0.20;0.20;;;;;;;;;;5071740;28;20107;-71
2023/09/08 03:28:15;;;;;;;0.15;0.15;;;;;;;;;;5053501;28;20033;-71
2023/09/08 03:30:40;;;;;;;0.10;0.10;;;;;;;;;;5069497;28;20446;-70
2023/09/08 03:33:06;;;;;;;0.20;0.20;;;;;;;;;;5053607;28;20094;-70
2023/09/08 03:35:32;;;;;;;0.20;0.20;;;;;;;;;;5071283;28;20943;-70
2023/09/08 03:37:58;;;;;;;0.20;0.20;;;;;;;;;;5070959;28;20032;-70
2023/09/08 03:40:25;;;;;;;0.20;0.20;;;;;;;;;;5053021;28;20039;-70
2023/09/08 03:42:51;;;;;;;0.20;0.20;;;;;;;;;;5053579;28;20028;-70
2023/09/08 03:45:17;;;;;;;0.15;0.15;;;;;;;;;;5070231;28;20032;-70
2023/09/08 03:47:42;;;;;;;0.20;0.20;;;;;;;;;;5071048;28;20407;-70
2023/09/08 03:50:08;;;;;;;0.13;0.13;;;;;;;;;;5068401;28;20036;-71
2023/09/08 03:52:34;;;;;;;0.10;0.10;;;;;;;;;;5048790;28;20038;-71
2023/09/08 03:55:00;;;;;;;0.10;0.10;;;;;;;;;;5068115;28;20044;-71
2023/09/08 03:57:25;;;;;;;0.10;0.10;;;;;;;;;;5067385;28;20499;-71
2023/09/08 03:59:51;;;;;;;0.20;0.20;;;;;;;;;;5068878;28;20059;-71
2023/09/08 04:02:16;;;;;;;0.20;0.20;;;;;;;;;;5048987;28;20025;-70
2023/09/08 04:04:42;;;;;;;0.20;0.20;;;;;;;;;;5068554;28;20092;-71
2023/09/08 04:07:08;;;;;;;0.10;0.10;;;;;;;;;;5049165;28;20040;-70
2023/09/08 04:09:33;;;;;;;0.20;0.20;;;;;;;;;;5064385;28;20387;-70
2023/09/08 04:11:59;;;;;;;0.20;0.20;;;;;;;;;;5067692;28;20036;-72
2023/09/08 04:14:27;;;;;;;0.10;0.10;;;;;;;;;;5050910;28;20029;-70
2023/09/08 04:16:53;;;;;;;0.20;0.20;;;;;;;;;;5068230;28;20412;-70
2023/09/08 04:19:18;;;;;;;0.15;0.15;;;;;;;;;;5052604;28;20040;-72
2023/09/08 04:21:44;;;;;;;0.20;0.20;;;;;;;;;;5070586;28;20098;-70
2023/09/08 04:24:12;;;;;;;0.20;0.20;;;;;;;;;;5053052;28;20033;-71
2023/09/08 04:26:38;;;;;;;0.50;0.38;;;;;;;;;;5071779;28;20033;-71
2023/09/08 04:29:04;;;;;;;0.20;0.20;;;;;;;;;;5053544;28;20082;-71
2023/09/08 04:31:30;;;;;;;0.10;0.10;;;;;;;;;;5070401;28;20410;-71
2023/09/08 04:33:56;;;;;;;0.10;0.10;;;;;;;;;;5070469;28;20028;-71
2023/09/08 04:36:21;;;;;;;0.40;0.38;;;;;;;;;;5052153;28;20040;-73
2023/09/08 04:38:47;;;;;;;0.10;0.10;;;;;;;;;;5070449;28;20500;-74
2023/09/08 04:41:13;;;;;;;0.20;0.20;;;;;;;;;;5070658;28;20044;-73
2023/09/08 04:43:39;;;;;;;0.13;0.13;;;;;;;;;;5051386;28;20488;-75
2023/09/08 04:46:04;;;;;;;0.13;0.13;;;;;;;;;;5068589;28;20049;-75
2023/09/08 04:48:30;;;;;;;0.10;0.10;;;;;;;;;;5068905;28;20032;-75
2023/09/08 04:50:56;;;;;;;0.10;0.10;;;;;;;;;;5049027;28;20028;-77
2023/09/08 04:53:22;;;;;;;0.10;0.10;;;;;;;;;;5034034;28;20027;-76
2023/09/08 04:55:47;;;;;;;0.10;0.10;;;;;;;;;;5069622;28;20047;-75
2023/09/08 04:58:13;;;;;;;0.10;0.10;;;;;;;;;;5068656;28;20037;-74
2023/09/08 05:00:39;;;;;;;0.10;0.10;;;;;;;;;;5051678;28;20064;-76
2023/09/08 05:03:06;;;;;;;0.10;0.10;;;;;;;;;;5069881;28;20111;-77
2023/09/08 05:05:31;;;;;;;0.20;0.20;;;;;;;;;;5051670;28;20526;-75
2023/09/08 05:07:57;;;;;;;0.20;0.20;;;;;;;;;;5052193;28;20118;-76
2023/09/08 05:10:25;;;;;;;0.13;0.13;;;;;;;;;;5069604;28;20044;-76
2023/09/08 05:12:50;;;;;;;0.10;0.10;;;;;;;;;;5051863;28;20044;-75
2023/09/08 05:15:17;;;;;;;0.20;0.20;;;;;;;;;;5051667;28;20044;-74
2023/09/08 05:17:48;;;;;;;0.10;0.10;;;;;;;;;;5051762;28;20036;-76
2023/09/08 05:20:15;;;;;;;0.15;0.15;;;;;;;;;;5051223;28;20036;-78
2023/09/08 05:22:41;;;;;;;0.20;0.20;;;;;;;;;;5051927;28;20047;-77
2023/09/08 05:25:07;;;;;;;0.20;0.20;;;;;;;;;;5050359;28;20036;-77
2023/09/08 05:27:33;;;;;;;0.20;0.20;;;;;;;;;;5018854;28;20400;-74
2023/09/08 05:29:58;;;;;;;0.10;0.10;;;;;;;;;;5069661;28;20028;-76
2023/09/08 05:32:24;;;;;;;0.10;0.10;;;;;;;;;;5069364;28;20131;-76
2023/09/08 05:34:50;;;;;;;0.20;0.20;;;;;;;;;;5069534;28;20456;-77
2023/09/08 05:37:16;;;;;;;0.20;0.20;;;;;;;;;;5051260;28;20048;-77
2023/09/08 05:39:43;;;;;;;0.20;0.20;;;;;;;;;;5051224;28;20454;-76
2023/09/08 05:42:08;;;;;;;0.10;0.10;;;;;;;;;;5051615;28;20024;-77
2023/09/08 05:44:35;;;;;;;0.20;0.20;;;;;;;;;;5051516;28;20036;-77
2023/09/08 05:47:01;;;;;;;0.20;0.20;;;;;;;;;;5051148;28;20120;-76
2023/09/08 05:49:27;;;;;;;0.10;0.10;;;;;;;;;;5051135;28;20123;-77
2023/09/08 05:51:53;;;;;;;0.20;0.20;;;;;;;;;;5069014;28;20033;-76
2023/09/08 05:54:19;;;;;;;0.15;0.15;;;;;;;;;;5051182;28;20100;-76
2023/09/08 05:56:44;;;;;;;0.10;0.10;;;;;;;;;;5069238;28;20101;-76
2023/09/08 05:59:10;;;;;;;0.20;0.20;;;;;;;;;;5051027;28;20032;-79
2023/09/08 06:01:38;;;;;;;0.20;0.20;;;;;;;;;;5072849;28;20044;-78
2023/09/08 06:04:06;;;;;;;0.20;0.20;;;;;;;;;;5072087;28;20118;-79
2023/09/08 06:06:33;;;;;;;0.20;0.20;;;;;;;;;;5070650;28;20039;-77
2023/09/08 06:08:59;;;;;;;0.20;0.20;;;;;;;;;;5051313;28;20024;-76
2023/09/08 06:11:25;;;;;;;0.20;0.20;;;;;;;;;;5069231;28;20058;-77
2023/09/08 06:13:55;;;;;;;0.22;0.22;;;;;;;;;;5068946;28;20036;-77
2023/09/08 06:16:22;;;;;;;0.20;0.20;;;;;;;;;;5068744;28;20047;-75
2023/09/08 06:18:47;;;;;;;0.10;0.10;;;;;;;;;;5069108;28;20049;-74
2023/09/08 06:21:16;;;;;;;0.20;0.20;;;;;;;;;;5051998;28;20072;-75
2023/09/08 06:23:43;;;;;;;0.20;0.20;;;;;;;;;;5051327;28;20522;-75
2023/09/08 06:26:09;;;;;;;0.20;0.20;;;;;;;;;;5050674;28;20056;-78
2023/09/08 06:28:36;;;;;;;0.15;0.15;;;;;;;;;;5050942;28;20037;-78
2023/09/08 06:31:02;;;;;;;0.20;0.20;;;;;;;;;;5050752;28;20037;-77
2023/09/08 06:33:29;;;;;;;0.10;0.10;;;;;;;;;;5050819;28;20036;-77
2023/09/08 06:35:55;;;;;;;0.20;0.20;;;;;;;;;;5050406;28;20052;-78
2023/09/08 06:38:20;;;;;;;0.20;0.20;;;;;;;;;;5050966;28;20072;-77
2023/09/08 06:40:46;;;;;;;0.20;0.20;;;;;;;;;;5034426;28;20036;-76
2023/09/08 06:43:12;;;;;;;0.20;0.20;;;;;;;;;;5050408;28;20098;-76
2023/09/08 06:45:50;;;;;;;0.40;0.40;;;;;;;;;;5050559;28;20124;-76
2023/09/08 06:48:16;;;;;;;0.40;0.40;;;;;;;;;;5068025;28;20115;-76
2023/09/08 06:50:41;;;;;;;0.20;0.20;;;;;;;;;;5068350;28;20032;-76
2023/09/08 06:53:07;;;;;;;0.20;0.20;;;;;;;;;;5050869;28;20068;-76
2023/09/08 06:55:32;;;;;;;0.30;0.30;;;;;;;;;;5068420;28;20047;-77
2023/09/08 06:57:58;;;;;;;0.20;0.20;;;;;;;;;;5050299;28;20161;-75
2023/09/08 07:00:24;;;;;;;0.20;0.20;;;;;;;;;;5050666;28;20052;-76
2023/09/08 07:02:50;;;;;;;0.20;0.20;;;;;;;;;;5050430;28;20020;-77
2023/09/08 07:05:16;;;;;;;0.20;0.20;;;;;;;;;;5068535;28;20027;-76
2023/09/08 07:07:42;;;;;;;0.20;0.20;;;;;;;;;;5050251;28;20032;-75
2023/09/08 07:10:08;;;;;;;0.22;0.22;;;;;;;;;;5068082;28;20387;-77
2023/09/08 07:12:34;;;;;;;5.85;2.42;;;;;;;;;;5050112;28;20043;-77
2023/09/08 07:15:00;;;;;;;3.22;3.03;;;;;;;;;;5050088;28;20032;-75
2023/09/08 07:17:26;;;;;;;0.55;0.55;;;;;;;;;;5049886;28;20063;-77
2023/09/08 07:19:52;;;;;;;0.20;0.20;;;;;;;;;;5050364;28;20041;-76
2023/09/08 07:22:18;;;;;;;3.95;3.75;;;;;;;;;;5049959;28;20043;-77
2023/09/08 07:24:44;;;;;;;0.20;0.20;;;;;;;;;;5067928;28;20028;-75
2023/09/08 07:27:13;;;;;;;0.40;0.40;;;;;;;;;;5068049;28;20044;-78
2023/09/08 07:29:39;;;;;;;3.60;1.92;;;;;;;;;;5050406;28;20033;-76
2023/09/08 07:32:05;;;;;;;0.20;0.20;;;;;;;;;;5067673;28;20031;-76
2023/09/08 07:34:32;;;;;;;0.20;0.20;;;;;;;;;;5067723;28;20024;-76
2023/09/08 07:36:57;;;;;;;0.30;0.30;;;;;;;;;;5068091;28;20063;-76
2023/09/08 07:39:23;;;;;;;0.20;0.20;;;;;;;;;;5049689;28;20149;-75
2023/09/08 07:41:49;;;;;;;3.28;1.55;;;;;;;;;;5033519;28;20036;-76
2023/09/08 07:44:14;;;;;;;0.85;0.85;;;;;;;;;;5049501;28;20499;-75
2023/09/08 07:46:40;;;;;;;3.08;1.00;;;;;;;;;;5049596;28;20041;-76
2023/09/08 07:49:06;;;;;;;0.30;0.30;;;;;;;;;;5070906;28;20032;-78
2023/09/08 07:51:32;;;;;;;0.20;0.20;;;;;;;;;;5070976;28;20064;-74
2023/09/08 07:53:58;;;;;;;0.32;0.32;;;;;;;;;;5071310;28;20020;-76
2023/09/08 07:56:23;;;;;;;0.20;0.20;;;;;;;;;;5070961;28;20177;-76
2023/09/08 07:58:48;;;;;;;0.22;0.22;;;;;;;;;;5070848;28;20029;-75
2023/09/08 08:01:15;;;;;;;0.28;0.28;;;;;;;;;;5071088;28;20032;-76
2023/09/08 08:03:40;;;;;;;0.20;0.20;;;;;;;;;;5071092;28;20099;-75
2023/09/08 08:06:06;;;;;;;0.22;0.22;;;;;;;;;;5070925;28;20111;-74
2023/09/08 08:08:32;;;;;;;1.63;1.27;;;;;;;;;;5070986;28;20025;-75
2023/09/08 08:10:57;;;;;;;0.30;0.30;;;;;;;;;;5070890;28;20035;-76
2023/09/08 08:13:23;;;;;;;1.27;1.17;;;;;;;;;;5070908;28;20067;-76
2023/09/08 08:15:49;;;;;;;0.30;0.30;;;;;;;;;;5070700;28;20052;-76
2023/09/08 08:18:15;;;;;;;0.50;0.50;;;;;;;;;;5070822;28;20119;-74
2023/09/08 08:20:41;;;;;;;0.30;0.30;;;;;;;;;;5070836;28;20028;-75
2023/09/08 08:23:06;;;;;;;3.08;2.90;;;;;;;;;;5070870;28;20036;-75
2023/09/08 08:25:32;;;;;;;0.85;0.85;;;;;;;;;;5070588;28;20033;-76
2023/09/08 08:28:01;;;;;;;0.32;0.30;;;;;;;;;;5070191;28;20444;-75
2023/09/08 08:30:27;;;;;;;0.30;0.30;;;;;;;;;;5052583;28;20032;-76
2023/09/08 08:32:53;;;;;;;0.52;0.52;;;;;;;;;;5070284;28;20369;-75
2023/09/08 08:35:22;;;;;;;0.20;0.20;;;;;;;;;;5067953;28;20115;-79
2023/09/08 08:37:47;;;;;;;0.40;0.40;;;;;;;;;;5067768;28;20044;-75
2023/09/08 08:40:13;;;;;;;0.30;0.30;;;;;;;;;;5068184;28;20082;-76
2023/09/08 08:42:39;;;;;;;0.73;0.73;;;;;;;;;;5068221;28;20090;-78
2023/09/08 08:45:05;;;;;;;3.45;1.63;;;;;;;;;;5068254;28;20041;-75
2023/09/08 08:47:31;;;;;;;0.30;0.30;;;;;;;;;;5068069;28;20082;-78
2023/09/08 08:49:58;;;;;;;0.30;0.30;;;;;;;;;;5067862;28;20033;-78
2023/09/08 08:52:25;;;;;;;0.40;0.40;;;;;;;;;;5068257;28;20388;-77
2023/09/08 08:54:51;;;;;;;0.30;0.30;;;;;;;;;;5068876;28;20028;-77
2023/09/08 08:57:16;;;;;;;0.20;0.20;;;;;;;;;;5050145;28;20036;-77
2023/09/08 08:59:43;;;;;;;0.40;0.40;;;;;;;;;;5050037;28;20035;-78
2023/09/08 09:02:09;;;;;;;0.55;0.55;;;;;;;;;;5068161;28;20039;-78
2023/09/08 09:04:36;;;;;;;0.60;0.60;;;;;;;;;;5068491;28;20020;-77
2023/09/08 09:07:01;;;;;;;0.60;0.60;;;;;;;;;;5068690;28;20039;-79
2023/09/08 09:09:28;;;;;;;0.82;0.82;;;;;;;;;;5068241;28;20017;-79
2023/09/08 09:11:53;;;;;;;0.55;0.55;;;;;;;;;;5067958;28;20063;-77
2023/09/08 09:14:19;;;;;;;0.30;0.30;;;;;;;;;;5068687;28;20033;-75
2023/09/08 09:16:45;;;;;;;0.75;0.75;;;;;;;;;;5067886;28;20039;-75
2023/09/08 09:19:18;;;;;;;0.47;0.47;;;;;;;;;;5067625;28;20412;-77
2023/09/08 09:21:47;;;;;;;0.32;0.32;;;;;;;;;;5067315;28;20051;-74
2023/09/08 09:24:17;;;;;;;0.50;0.50;;;;;;;;;;5049294;28;20051;-76
2023/09/08 09:26:42;;;;;;;0.40;0.40;;;;;;;;;;5067515;28;20373;-74
2023/09/08 09:29:14;;;;;;;0.40;0.40;;;;;;;;;;5067844;28;20127;-76
2023/09/08 09:31:52;;;;;;;0.38;0.38;;;;;;;;;;5067692;28;20036;-77
2023/09/08 09:34:18;;;;;;;0.55;0.55;;;;;;;;;;5066862;28;20054;-78
2023/09/08 09:36:45;;;;;;;4.80;0.98;;;;;;;;;;5067789;28;20476;-75
2023/09/08 09:39:12;;;;;;;1.15;0.95;;;;;;;;;;5067546;28;20047;-77
2023/09/08 09:41:37;;;;;;;0.63;0.63;;;;;;;;;;5067351;28;20085;-79
2023/09/08 09:44:03;;;;;;;2.15;1.48;;;;;;;;;;5049142;28;20049;-74
2023/09/08 09:46:29;;;;;;;4.25;0.77;;;;;;;;;;5066530;28;20036;-78
2023/09/08 09:48:56;;;;;;;0.75;0.75;;;;;;;;;;5049205;28;20420;-75
2023/09/08 09:51:22;;;;;;;1.50;1.40;;;;;;;;;;5067150;28;20539;-75
2023/09/08 09:53:49;;;;;;;3.60;0.85;;;;;;;;;;5067159;28;20123;-80
2023/09/08 09:56:16;;;;;;;1.02;0.80;;;;;;;;;;5067327;28;20036;-75
2023/09/08 09:58:42;;;;;;;1.88;0.85;;;;;;;;;;5066834;28;20047;-75
2023/09/08 10:01:08;;;;;;;1.48;1.38;;;;;;;;;;5066949;28;20040;-74
2023/09/08 10:03:34;;;;;;;1.92;1.40;;;;;;;;;;5067241;28;20032;-76
2023/09/08 10:05:59;;;;;;;2.35;1.52;;;;;;;;;;5066634;28;20028;-75
2023/09/08 10:08:25;;;;;;;1.45;1.35;;;;;;;;;;5049199;28;20038;-77
2023/09/08 10:10:50;;;;;;;3.08;2.50;;;;;;;;;;5065519;28;20025;-72
2023/09/08 10:13:24;;;;;;;2.42;2.08;;;;;;;;;;5069729;28;20028;-75
2023/09/08 10:15:50;;;;;;;2.17;1.65;;;;;;;;;;5052059;28;20052;-74
2023/09/08 10:18:16;;;;;;;1.48;1.38;;;;;;;;;;5068162;28;20415;-75
2023/09/08 10:20:42;;;;;;;1.70;1.60;;;;;;;;;;5067884;28;20373;-75
2023/09/08 10:23:28;;;;;;;1.08;0.95;;;;;;;;;;5067883;28;20321;-75
2023/09/08 10:25:56;;;;;;;1.15;1.00;;;;;;;;;;5067193;28;20476;-75
2023/09/08 10:28:22;;;;;;;1.02;0.93;;;;;;;;;;5048801;28;20067;-75
2023/09/08 10:30:48;;;;;;;0.60;0.60;;;;;;;;;;5066897;28;20480;-75
2023/09/08 10:33:15;;;;;;;1.08;0.98;;;;;;;;;;5066802;28;20038;-75
2023/09/08 10:35:42;;;;;;;1.95;1.05;;;;;;;;;;5066873;28;20105;-75
2023/09/08 10:38:25;;;;;;;0.93;0.82;;;;;;;;;;5066474;28;20334;-75
2023/09/08 10:40:51;;;;;;;2.38;1.70;;;;;;;;;;5066584;28;20043;-76
2023/09/08 10:43:18;;;;;;;1.65;1.38;;;;;;;;;;5066764;28;20052;-76
2023/09/08 10:45:44;;;;;;;0.60;0.60;;;;;;;;;;5066253;28;20034;-75
2023/09/08 10:48:10;;;;;;;1.48;1.20;;;;;;;;;;5066626;28;20469;-74
2023/09/08 10:50:40;;;;;;;3.53;2.92;;;;;;;;;;5066594;28;20036;-74
2023/09/08 10:53:06;;;;;;;0.93;0.57;;;;;;;;;;5066647;28;20032;-77
2023/09/08 10:55:36;;;;;;;1.48;1.10;;;;;;;;;;5066539;28;20047;-75
2023/09/08 10:58:03;;;;;;;1.42;1.10;;;;;;;;;;5065980;28;20048;-76
2023/09/08 11:00:42;;;;;;;2.17;1.23;;;;;;;;;;5066433;28;20492;-75
2023/09/08 11:03:08;;;;;;;2.63;1.83;;;;;;;;;;5066450;28;20038;-74
2023/09/08 11:05:34;;;;;;;0.70;0.68;;;;;;;;;;5066247;28;20032;-76
2023/09/08 11:08:00;;;;;;;3.92;1.38;;;;;;;;;;5066619;28;20052;-74
2023/09/08 11:10:25;;;;;;;1.73;1.05;;;;;;;;;;5066014;28;20349;-77
2023/09/08 11:12:51;;;;;;;0.88;0.60;;;;;;;;;;5066354;28;20060;-75
2023/09/08 11:15:19;;;;;;;1.13;1.05;;;;;;;;;;5066450;28;20040;-75
2023/09/08 11:17:45;;;;;;;0.93;0.65;;;;;;;;;;5069069;28;20037;-74
2023/09/08 11:20:12;;;;;;;2.58;1.80;;;;;;;;;;5067066;28;20040;-76
2023/09/08 11:22:56;;;;;;;0.88;0.73;;;;;;;;;;5072146;28;20068;-75
2023/09/08 11:25:40;;;;;;;1.80;1.50;;;;;;;;;;5070811;28;20076;-76
2023/09/08 11:28:06;;;;;;;3.75;1.90;;;;;;;;;;5071517;28;20028;-75
2023/09/08 11:30:31;;;;;;;1.55;1.38;;;;;;;;;;5071992;28;20062;-74
2023/09/08 11:32:58;;;;;;;0.95;0.85;;;;;;;;;;5071604;28;20028;-75
2023/09/08 11:35:27;;;;;;;0.60;0.60;;;;;;;;;;5071579;28;20067;-75
2023/09/08 11:37:54;;;;;;;1.80;1.08;;;;;;;;;;5071392;28;20033;-75
2023/09/08 11:40:22;;;;;;;2.28;1.85;;;;;;;;;;5071201;28;20040;-75
2023/09/08 11:42:47;;;;;;;1.90;1.15;;;;;;;;;;5071491;28;20078;-74
2023/09/08 11:45:14;;;;;;;1.77;1.48;;;;;;;;;;5071173;28;20452;-73
2023/09/08 11:47:43;;;;;;;1.40;0.95;;;;;;;;;;5071282;28;20036;-74
2023/09/08 11:50:17;;;;;;;3.58;1.95;;;;;;;;;;5071060;28;20396;-75
2023/09/08 11:52:44;;;;;;;3.28;1.10;;;;;;;;;;5071123;28;20403;-75
2023/09/08 11:55:11;;;;;;;0.82;0.73;;;;;;;;;;5071035;28;20058;-75
2023/09/08 11:57:37;;;;;;;3.05;1.65;;;;;;;;;;5053240;28;20039;-76
2023/09/08 12:00:05;;;;;;;1.35;1.10;;;;;;;;;;5052704;28;20437;-76
2023/09/08 12:02:37;;;;;;;3.38;1.55;;;;;;;;;;5071073;28;20488;-75
2023/09/08 12:05:10;;;;;;;0.68;0.68;;;;;;;;;;5071227;28;20551;-75
2023/09/08 12:07:37;;;;;;;3.65;2.33;;;;;;;;;;5071136;28;20032;-77
2023/09/08 12:10:06;;;;;;;1.52;1.17;;;;;;;;;;5071116;28;20075;-74
2023/09/08 12:12:32;;;;;;;2.03;1.40;;;;;;;;;;5072571;28;20040;-76
2023/09/08 12:14:58;;;;;;;2.58;1.52;;;;;;;;;;5071294;28;20088;-76
2023/09/08 12:17:26;;;;;;;1.20;0.77;;;;;;;;;;5069361;28;20040;-73
2023/09/08 12:19:51;;;;;;;1.33;1.00;;;;;;;;;;5069284;28;20097;-78
2023/09/08 12:22:21;;;;;;;1.33;1.17;;;;;;;;;;5068346;28;20456;-78
2023/09/08 12:24:56;;;;;;;2.58;1.67;;;;;;;;;;5069340;28;20028;-79
2023/09/08 12:27:22;;;;;;;0.75;0.75;;;;;;;;;;5069089;28;20037;-75
2023/09/08 12:29:59;;;;;;;2.40;1.40;;;;;;;;;;5068415;28;20401;-75
2023/09/08 12:32:25;;;;;;;2.75;1.58;;;;;;;;;;5068530;28;20029;-78
2023/09/08 12:34:51;;;;;;;1.80;1.58;;;;;;;;;;5067691;28;20050;-78
2023/09/08 12:37:21;;;;;;;1.70;1.15;;;;;;;;;;5050083;28;20386;-74
2023/09/08 12:39:47;;;;;;;2.67;1.38;;;;;;;;;;5050187;28;20045;-76
2023/09/08 12:42:13;;;;;;;1.23;1.13;;;;;;;;;;5068098;28;20043;-81
2023/09/08 12:44:40;;;;;;;1.02;0.82;;;;;;;;;;5068162;28;20028;-81
2023/09/08 12:47:06;;;;;;;2.20;1.50;;;;;;;;;;5067786;28;20115;-73
2023/09/08 12:49:32;;;;;;;1.67;1.17;;;;;;;;;;5068464;28;20162;-74
2023/09/08 12:51:57;;;;;;;1.27;1.00;;;;;;;;;;5068309;28;20103;-77
2023/09/08 12:54:23;;;;;;;0.63;0.63;;;;;;;;;;5068178;28;20201;-83
2023/09/08 12:56:50;;;;;;;2.10;1.38;;;;;;;;;;5068172;28;20020;-72
2023/09/08 12:59:16;;;;;;;1.17;1.08;;;;;;;;;;5067535;28;20037;-77
2023/09/08 13:01:41;;;;;;;3.10;2.30;;;;;;;;;;5067911;28;20029;-73
2023/09/08 13:04:07;;;;;;;1.45;1.02;;;;;;;;;;5067903;28;20103;-77
2023/09/08 13:06:34;;;;;;;2.88;2.20;;;;;;;;;;5050024;28;20041;-77
2023/09/08 13:09:00;;;;;;;1.90;1.63;;;;;;;;;;5067864;28;20384;-75
2023/09/08 13:11:26;;;;;;;0.70;0.70;;;;;;;;;;5067647;28;20062;-77
2023/09/08 13:13:51;;;;;;;0.82;0.70;;;;;;;;;;5067980;28;20109;-77
2023/09/08 13:16:17;;;;;;;0.82;0.82;;;;;;;;;;5067648;28;20322;-78
2023/09/08 13:18:44;;;;;;;1.25;1.10;;;;;;;;;;5067500;28;20447;-81
2023/09/08 13:21:11;;;;;;;1.02;0.93;;;;;;;;;;5067248;28;20046;-82
2023/09/08 13:23:36;;;;;;;2.20;1.15;;;;;;;;;;5067595;28;20266;-75
2023/09/08 13:26:02;;;;;;;2.20;1.40;;;;;;;;;;5067553;28;20445;-81
2023/09/08 13:28:28;;;;;;;2.50;1.05;;;;;;;;;;5067606;28;20047;-78
2023/09/08 13:30:53;;;;;;;1.63;1.15;;;;;;;;;;5068308;28;20021;-77
2023/09/08 13:33:19;;;;;;;0.60;0.60;;;;;;;;;;5067214;28;20466;-74
2023/09/08 13:35:45;;;;;;;1.40;0.63;;;;;;;;;;5067203;28;20484;-78
2023/09/08 13:38:11;;;;;;;2.20;1.83;;;;;;;;;;5049247;28;20395;-76
2023/09/08 13:40:37;;;;;;;1.00;0.70;;;;;;;;;;5067569;28;20427;-78
2023/09/08 13:43:03;;;;;;;7.30;2.10;;;;;;;;;;5067884;28;20028;-81
2023/09/08 13:45:29;;;;;;;0.85;0.80;;;;;;;;;;5068343;28;20479;-75
2023/09/08 13:47:54;;;;;;;1.75;1.30;;;;;;;;;;5069317;28;20033;-79
2023/09/08 13:50:20;;;;;;;0.52;0.52;;;;;;;;;;5068673;28;20024;-75
2023/09/08 13:52:46;;;;;;;1.30;1.10;;;;;;;;;;5069532;28;20068;-75
2023/09/08 13:55:12;;;;;;;1.73;1.55;;;;;;;;;;5069352;28;20024;-78
2023/09/08 13:57:38;;;;;;;0.47;0.35;;;;;;;;;;5069300;28;20041;-80
2023/09/08 14:00:04;;;;;;;0.88;0.80;;;;;;;;;;5069059;28;20035;-80
2023/09/08 14:02:36;;;;;;;1.48;1.33;;;;;;;;;;5069079;28;20044;-78
2023/09/08 14:05:01;;;;;;;1.27;0.93;;;;;;;;;;5068973;28;20037;-77
2023/09/08 14:07:28;;;;;;;0.60;0.60;;;;;;;;;;5072913;28;20116;-76
2023/09/08 14:09:53;;;;;;;0.80;0.80;;;;;;;;;;5072012;28;20099;-73
2023/09/08 14:12:19;;;;;;;1.25;1.15;;;;;;;;;;5070733;28;20079;-76
2023/09/08 14:14:44;;;;;;;0.40;0.40;;;;;;;;;;5052034;28;20028;-77
2023/09/08 14:17:10;;;;;;;2.35;1.50;;;;;;;;;;5070361;28;20029;-78
2023/09/08 14:19:36;;;;;;;2.65;1.75;;;;;;;;;;5051021;28;20032;-79
2023/09/08 14:22:02;;;;;;;1.55;1.23;;;;;;;;;;5068931;28;20083;-76
2023/09/08 14:24:27;;;;;;;1.52;1.08;;;;;;;;;;5069428;28;20029;-76
2023/09/08 14:26:53;;;;;;;0.68;0.68;;;;;;;;;;5068993;28;20036;-76
2023/09/08 14:29:21;;;;;;;0.60;0.60;;;;;;;;;;5068842;28;20033;-76
2023/09/08 14:31:47;;;;;;;2.28;1.65;;;;;;;;;;5068596;28;20016;-78
2023/09/08 14:34:13;;;;;;;0.70;0.70;;;;;;;;;;5068337;28;20040;-79
2023/09/08 14:36:39;;;;;;;0.50;0.50;;;;;;;;;;5068946;28;20451;-76
2023/09/08 14:39:05;;;;;;;0.98;0.88;;;;;;;;;;5068508;28;20537;-81